sensor_id;sensor_type;location;lat;lon;timestamp;P1;durP1;ratioP1;P2;durP2;ratioP2
20122;SDS011;10222;50.848;4.336;2022-11-15T00:01:06;8.87;;;5.50;;
20122;SDS011;10222;50.848;4.336;2022-11-15T00:03:32;10.17;;;5.63;;
20122;SDS011;10222;50.848;4.336;2022-11-15T00:06:02;10.90;;;6.57;;
20122;SDS011;10222;50.848;4.336;2022-11-15T00:08:29;11.70;;;6.30;;
20122;SDS011;10222;50.848;4.336;2022-11-15T00:10:56;9.43;;;5.73;;
20122;SDS011;10222;50.848;4.336;2022-11-15T00:13:22;10.93;;;6.00;;
20122;SDS011;10222;50.848;4.336;2022-11-15T00:15:48;9.27;;;5.80;;
20122;SDS011;10222;50.848;4.336;2022-11-15T00:18:14;11.40;;;6.90;;
20122;SDS011;10222;50.848;4.336;2022-11-15T00:20:41;13.07;;;6.17;;
20122;SDS011;10222;50.848;4.336;2022-11-15T00:23:07;12.10;;;6.77;;
20122;SDS011;10222;50.848;4.336;2022-11-15T00:25:33;9.73;;;5.27;;
20122;SDS011;10222;50.848;4.336;2022-11-15T00:27:59;10.93;;;6.47;;
20122;SDS011;10222;50.848;4.336;2022-11-15T00:30:26;11.20;;;6.33;;
20122;SDS011;10222;50.848;4.336;2022-11-15T00:32:52;10.57;;;6.23;;
20122;SDS011;10222;50.848;4.336;2022-11-15T00:35:19;12.23;;;6.17;;
20122;SDS011;10222;50.848;4.336;2022-11-15T00:37:46;11.60;;;6.83;;
20122;SDS011;10222;50.848;4.336;2022-11-15T00:40:12;14.17;;;6.43;;
20122;SDS011;10222;50.848;4.336;2022-11-15T00:42:39;10.47;;;6.33;;
20122;SDS011;10222;50.848;4.336;2022-11-15T00:45:05;9.20;;;6.27;;
20122;SDS011;10222;50.848;4.336;2022-11-15T00:47:31;15.20;;;6.47;;
20122;SDS011;10222;50.848;4.336;2022-11-15T00:49:57;9.57;;;6.13;;
20122;SDS011;10222;50.848;4.336;2022-11-15T00:52:23;11.60;;;6.73;;
20122;SDS011;10222;50.848;4.336;2022-11-15T00:54:51;8.63;;;5.40;;
20122;SDS011;10222;50.848;4.336;2022-11-15T00:57:23;10.70;;;6.27;;
20122;SDS011;10222;50.848;4.336;2022-11-15T00:59:49;11.57;;;6.50;;
20122;SDS011;10222;50.848;4.336;2022-11-15T01:04:47;9.67;;;6.10;;
20122;SDS011;10222;50.848;4.336;2022-11-15T01:07:13;10.87;;;6.83;;
20122;SDS011;10222;50.848;4.336;2022-11-15T01:09:42;11.57;;;6.87;;
20122;SDS011;10222;50.848;4.336;2022-11-15T01:12:09;11.30;;;6.93;;
20122;SDS011;10222;50.848;4.336;2022-11-15T01:14:35;12.57;;;7.90;;
20122;SDS011;10222;50.848;4.336;2022-11-15T01:17:01;16.50;;;7.37;;
20122;SDS011;10222;50.848;4.336;2022-11-15T01:19:27;13.00;;;6.93;;
20122;SDS011;10222;50.848;4.336;2022-11-15T01:21:54;12.23;;;6.17;;
20122;SDS011;10222;50.848;4.336;2022-11-15T01:24:21;14.97;;;6.80;;
20122;SDS011;10222;50.848;4.336;2022-11-15T01:26:47;11.03;;;6.60;;
20122;SDS011;10222;50.848;4.336;2022-11-15T01:29:14;11.37;;;6.77;;
20122;SDS011;10222;50.848;4.336;2022-11-15T01:31:40;12.27;;;7.23;;
20122;SDS011;10222;50.848;4.336;2022-11-15T01:34:06;17.50;;;6.80;;
20122;SDS011;10222;50.848;4.336;2022-11-15T01:36:32;12.97;;;7.70;;
20122;SDS011;10222;50.848;4.336;2022-11-15T01:39:01;13.63;;;6.53;;
20122;SDS011;10222;50.848;4.336;2022-11-15T01:41:31;12.37;;;6.73;;
20122;SDS011;10222;50.848;4.336;2022-11-15T01:44:45;10.23;;;6.03;;
20122;SDS011;10222;50.848;4.336;2022-11-15T01:49:19;16.50;;;6.30;;
20122;SDS011;10222;50.848;4.336;2022-11-15T01:51:46;9.93;;;6.30;;
20122;SDS011;10222;50.848;4.336;2022-11-15T01:54:15;10.63;;;5.93;;
20122;SDS011;10222;50.848;4.336;2022-11-15T01:56:51;11.07;;;6.47;;
20122;SDS011;10222;50.848;4.336;2022-11-15T01:59:22;11.23;;;6.43;;
20122;SDS011;10222;50.848;4.336;2022-11-15T02:01:48;8.03;;;5.37;;
20122;SDS011;10222;50.848;4.336;2022-11-15T02:04:24;9.27;;;5.30;;
20122;SDS011;10222;50.848;4.336;2022-11-15T02:06:52;9.03;;;5.03;;
20122;SDS011;10222;50.848;4.336;2022-11-15T02:09:20;8.90;;;5.20;;
20122;SDS011;10222;50.848;4.336;2022-11-15T02:11:50;10.57;;;6.17;;
20122;SDS011;10222;50.848;4.336;2022-11-15T02:24:48;8.43;;;5.47;;
20122;SDS011;10222;50.848;4.336;2022-11-15T02:27:29;8.97;;;5.57;;
20122;SDS011;10222;50.848;4.336;2022-11-15T02:30:43;9.17;;;5.13;;
20122;SDS011;10222;50.848;4.336;2022-11-15T02:32:52;8.40;;;4.83;;
20122;SDS011;10222;50.848;4.336;2022-11-15T02:38:17;10.10;;;6.30;;
20122;SDS011;10222;50.848;4.336;2022-11-15T02:43:48;12.50;;;5.17;;
20122;SDS011;10222;50.848;4.336;2022-11-15T02:46:25;10.80;;;5.37;;
20122;SDS011;10222;50.848;4.336;2022-11-15T02:49:14;9.07;;;4.60;;
20122;SDS011;10222;50.848;4.336;2022-11-15T02:51:42;10.10;;;4.67;;
20122;SDS011;10222;50.848;4.336;2022-11-15T02:54:15;9.50;;;5.07;;
20122;SDS011;10222;50.848;4.336;2022-11-15T02:56:44;10.73;;;4.83;;
20122;SDS011;10222;50.848;4.336;2022-11-15T02:59:30;7.37;;;5.07;;
20122;SDS011;10222;50.848;4.336;2022-11-15T03:04:39;8.63;;;4.77;;
20122;SDS011;10222;50.848;4.336;2022-11-15T03:07:15;9.57;;;5.63;;
20122;SDS011;10222;50.848;4.336;2022-11-15T03:09:52;7.67;;;4.67;;
20122;SDS011;10222;50.848;4.336;2022-11-15T03:12:30;8.97;;;4.77;;
20122;SDS011;10222;50.848;4.336;2022-11-15T03:15:06;6.83;;;4.00;;
20122;SDS011;10222;50.848;4.336;2022-11-15T03:17:38;10.23;;;3.80;;
20122;SDS011;10222;50.848;4.336;2022-11-15T03:20:08;8.23;;;4.50;;
20122;SDS011;10222;50.848;4.336;2022-11-15T03:22:39;7.20;;;4.07;;
20122;SDS011;10222;50.848;4.336;2022-11-15T03:25:08;5.27;;;3.50;;
20122;SDS011;10222;50.848;4.336;2022-11-15T03:27:40;9.23;;;4.30;;
20122;SDS011;10222;50.848;4.336;2022-11-15T03:30:08;8.53;;;3.60;;
20122;SDS011;10222;50.848;4.336;2022-11-15T03:32:37;7.40;;;3.80;;
20122;SDS011;10222;50.848;4.336;2022-11-15T03:35:05;8.07;;;3.20;;
20122;SDS011;10222;50.848;4.336;2022-11-15T03:40:08;8.30;;;3.73;;
20122;SDS011;10222;50.848;4.336;2022-11-15T03:45:22;6.13;;;3.33;;
20122;SDS011;10222;50.848;4.336;2022-11-15T03:47:51;4.67;;;2.63;;
20122;SDS011;10222;50.848;4.336;2022-11-15T03:50:22;5.40;;;3.03;;
20122;SDS011;10222;50.848;4.336;2022-11-15T03:52:48;4.90;;;3.23;;
20122;SDS011;10222;50.848;4.336;2022-11-15T03:55:18;7.30;;;3.03;;
20122;SDS011;10222;50.848;4.336;2022-11-15T04:00:14;5.27;;;3.07;;
20122;SDS011;10222;50.848;4.336;2022-11-15T04:05:09;6.07;;;3.23;;
20122;SDS011;10222;50.848;4.336;2022-11-15T04:07:37;5.70;;;3.60;;
20122;SDS011;10222;50.848;4.336;2022-11-15T04:10:03;5.60;;;3.10;;
20122;SDS011;10222;50.848;4.336;2022-11-15T04:12:34;7.83;;;3.03;;
20122;SDS011;10222;50.848;4.336;2022-11-15T04:15:05;6.13;;;3.73;;
20122;SDS011;10222;50.848;4.336;2022-11-15T04:17:32;5.47;;;2.60;;
20122;SDS011;10222;50.848;4.336;2022-11-15T04:19:59;4.53;;;2.70;;
20122;SDS011;10222;50.848;4.336;2022-11-15T04:25:32;7.17;;;3.00;;
20122;SDS011;10222;50.848;4.336;2022-11-15T04:27:59;4.77;;;2.50;;
20122;SDS011;10222;50.848;4.336;2022-11-15T04:30:26;3.03;;;2.13;;
20122;SDS011;10222;50.848;4.336;2022-11-15T04:32:52;3.10;;;2.50;;
20122;SDS011;10222;50.848;4.336;2022-11-15T04:35:20;3.30;;;2.23;;
20122;SDS011;10222;50.848;4.336;2022-11-15T04:37:48;2.97;;;2.17;;
20122;SDS011;10222;50.848;4.336;2022-11-15T04:40:20;5.20;;;2.30;;
20122;SDS011;10222;50.848;4.336;2022-11-15T04:42:46;4.00;;;2.30;;
20122;SDS011;10222;50.848;4.336;2022-11-15T04:45:12;5.00;;;2.60;;
20122;SDS011;10222;50.848;4.336;2022-11-15T04:47:40;5.83;;;2.60;;
20122;SDS011;10222;50.848;4.336;2022-11-15T04:50:09;4.30;;;2.70;;
20122;SDS011;10222;50.848;4.336;2022-11-15T04:52:42;3.87;;;2.63;;
20122;SDS011;10222;50.848;4.336;2022-11-15T04:55:09;5.50;;;2.33;;
20122;SDS011;10222;50.848;4.336;2022-11-15T04:57:37;4.53;;;2.07;;
20122;SDS011;10222;50.848;4.336;2022-11-15T05:00:04;5.57;;;2.80;;
20122;SDS011;10222;50.848;4.336;2022-11-15T05:02:30;3.03;;;2.17;;
20122;SDS011;10222;50.848;4.336;2022-11-15T05:05:17;4.70;;;2.47;;
20122;SDS011;10222;50.848;4.336;2022-11-15T05:07:45;4.17;;;2.27;;
20122;SDS011;10222;50.848;4.336;2022-11-15T05:10:12;4.67;;;2.40;;
20122;SDS011;10222;50.848;4.336;2022-11-15T05:12:41;3.97;;;2.00;;
20122;SDS011;10222;50.848;4.336;2022-11-15T05:15:07;5.97;;;2.13;;
20122;SDS011;10222;50.848;4.336;2022-11-15T05:17:34;3.13;;;2.00;;
20122;SDS011;10222;50.848;4.336;2022-11-15T05:20:00;5.07;;;2.80;;
20122;SDS011;10222;50.848;4.336;2022-11-15T05:22:28;4.37;;;2.10;;
20122;SDS011;10222;50.848;4.336;2022-11-15T05:24:56;4.97;;;2.07;;
20122;SDS011;10222;50.848;4.336;2022-11-15T05:27:22;3.83;;;2.20;;
20122;SDS011;10222;50.848;4.336;2022-11-15T05:29:48;3.37;;;1.93;;
20122;SDS011;10222;50.848;4.336;2022-11-15T05:32:14;2.90;;;1.73;;
20122;SDS011;10222;50.848;4.336;2022-11-15T05:34:42;7.97;;;2.00;;
20122;SDS011;10222;50.848;4.336;2022-11-15T05:39:40;3.17;;;1.70;;
20122;SDS011;10222;50.848;4.336;2022-11-15T05:42:09;4.70;;;2.10;;
20122;SDS011;10222;50.848;4.336;2022-11-15T05:44:39;2.37;;;1.57;;
20122;SDS011;10222;50.848;4.336;2022-11-15T05:47:15;5.20;;;1.97;;
20122;SDS011;10222;50.848;4.336;2022-11-15T05:49:43;3.93;;;1.83;;
20122;SDS011;10222;50.848;4.336;2022-11-15T05:54:39;3.70;;;1.37;;
20122;SDS011;10222;50.848;4.336;2022-11-15T05:57:08;3.27;;;1.50;;
20122;SDS011;10222;50.848;4.336;2022-11-15T05:59:36;3.47;;;1.63;;
20122;SDS011;10222;50.848;4.336;2022-11-15T06:02:05;4.07;;;1.90;;
20122;SDS011;10222;50.848;4.336;2022-11-15T06:04:31;2.73;;;1.77;;
20122;SDS011;10222;50.848;4.336;2022-11-15T06:06:59;4.43;;;1.60;;
20122;SDS011;10222;50.848;4.336;2022-11-15T06:09:32;2.57;;;1.80;;
20122;SDS011;10222;50.848;4.336;2022-11-15T06:11:58;2.33;;;1.50;;
20122;SDS011;10222;50.848;4.336;2022-11-15T06:14:30;2.97;;;1.70;;
20122;SDS011;10222;50.848;4.336;2022-11-15T06:16:57;1.77;;;1.20;;
20122;SDS011;10222;50.848;4.336;2022-11-15T06:19:24;3.90;;;1.83;;
20122;SDS011;10222;50.848;4.336;2022-11-15T06:21:53;4.07;;;2.10;;
20122;SDS011;10222;50.848;4.336;2022-11-15T06:24:21;4.73;;;1.90;;
20122;SDS011;10222;50.848;4.336;2022-11-15T06:26:47;3.83;;;1.50;;
20122;SDS011;10222;50.848;4.336;2022-11-15T06:29:14;3.13;;;1.67;;
20122;SDS011;10222;50.848;4.336;2022-11-15T06:31:44;2.73;;;1.57;;
20122;SDS011;10222;50.848;4.336;2022-11-15T06:34:09;1.97;;;1.23;;
20122;SDS011;10222;50.848;4.336;2022-11-15T06:36:37;4.03;;;1.77;;
20122;SDS011;10222;50.848;4.336;2022-11-15T06:39:06;1.97;;;1.40;;
20122;SDS011;10222;50.848;4.336;2022-11-15T06:41:37;4.33;;;1.60;;
20122;SDS011;10222;50.848;4.336;2022-11-15T06:44:06;3.70;;;1.50;;
20122;SDS011;10222;50.848;4.336;2022-11-15T06:46:32;4.90;;;2.00;;
20122;SDS011;10222;50.848;4.336;2022-11-15T06:49:01;1.83;;;1.23;;
20122;SDS011;10222;50.848;4.336;2022-11-15T06:51:30;2.60;;;1.77;;
20122;SDS011;10222;50.848;4.336;2022-11-15T06:53:57;2.43;;;1.87;;
20122;SDS011;10222;50.848;4.336;2022-11-15T06:56:23;2.27;;;1.40;;
20122;SDS011;10222;50.848;4.336;2022-11-15T06:58:49;3.43;;;1.50;;
20122;SDS011;10222;50.848;4.336;2022-11-15T07:01:17;4.10;;;2.03;;
20122;SDS011;10222;50.848;4.336;2022-11-15T07:03:46;2.43;;;1.30;;
20122;SDS011;10222;50.848;4.336;2022-11-15T07:06:12;1.40;;;1.30;;
20122;SDS011;10222;50.848;4.336;2022-11-15T07:08:42;2.07;;;1.60;;
20122;SDS011;10222;50.848;4.336;2022-11-15T07:11:09;1.93;;;1.50;;
20122;SDS011;10222;50.848;4.336;2022-11-15T07:13:36;1.63;;;1.27;;
20122;SDS011;10222;50.848;4.336;2022-11-15T07:16:11;6.33;;;2.27;;
20122;SDS011;10222;50.848;4.336;2022-11-15T07:18:40;1.83;;;1.17;;
20122;SDS011;10222;50.848;4.336;2022-11-15T07:21:12;2.23;;;1.30;;
20122;SDS011;10222;50.848;4.336;2022-11-15T07:26:12;4.47;;;1.40;;
20122;SDS011;10222;50.848;4.336;2022-11-15T07:28:45;2.37;;;1.47;;
20122;SDS011;10222;50.848;4.336;2022-11-15T07:31:14;5.67;;;1.53;;
20122;SDS011;10222;50.848;4.336;2022-11-15T07:33:56;1.73;;;1.60;;
20122;SDS011;10222;50.848;4.336;2022-11-15T07:36:23;1.73;;;1.33;;
20122;SDS011;10222;50.848;4.336;2022-11-15T07:38:52;2.53;;;1.63;;
20122;SDS011;10222;50.848;4.336;2022-11-15T07:41:18;3.77;;;1.53;;
20122;SDS011;10222;50.848;4.336;2022-11-15T07:43:44;3.60;;;1.43;;
20122;SDS011;10222;50.848;4.336;2022-11-15T07:46:12;2.80;;;1.70;;
20122;SDS011;10222;50.848;4.336;2022-11-15T07:51:13;2.93;;;1.40;;
20122;SDS011;10222;50.848;4.336;2022-11-15T07:53:42;4.63;;;1.57;;
20122;SDS011;10222;50.848;4.336;2022-11-15T07:58:38;3.57;;;2.10;;
20122;SDS011;10222;50.848;4.336;2022-11-15T08:01:10;2.40;;;1.60;;
20122;SDS011;10222;50.848;4.336;2022-11-15T08:03:40;4.20;;;1.60;;
20122;SDS011;10222;50.848;4.336;2022-11-15T08:06:09;2.50;;;1.53;;
20122;SDS011;10222;50.848;4.336;2022-11-15T08:08:35;2.97;;;1.73;;
20122;SDS011;10222;50.848;4.336;2022-11-15T08:11:02;2.57;;;1.67;;
20122;SDS011;10222;50.848;4.336;2022-11-15T08:13:31;2.07;;;1.30;;
20122;SDS011;10222;50.848;4.336;2022-11-15T08:18:30;2.47;;;1.20;;
20122;SDS011;10222;50.848;4.336;2022-11-15T08:21:00;3.07;;;1.43;;
20122;SDS011;10222;50.848;4.336;2022-11-15T08:23:27;1.53;;;1.07;;
20122;SDS011;10222;50.848;4.336;2022-11-15T08:25:58;3.30;;;1.53;;
20122;SDS011;10222;50.848;4.336;2022-11-15T08:28:35;3.30;;;1.33;;
20122;SDS011;10222;50.848;4.336;2022-11-15T08:31:04;3.03;;;1.70;;
20122;SDS011;10222;50.848;4.336;2022-11-15T08:33:33;3.33;;;1.30;;
20122;SDS011;10222;50.848;4.336;2022-11-15T08:38:31;2.57;;;1.33;;
20122;SDS011;10222;50.848;4.336;2022-11-15T08:41:02;1.13;;;0.90;;
20122;SDS011;10222;50.848;4.336;2022-11-15T08:46:01;6.70;;;1.50;;
20122;SDS011;10222;50.848;4.336;2022-11-15T08:48:33;2.20;;;1.10;;
20122;SDS011;10222;50.848;4.336;2022-11-15T08:51:02;1.43;;;1.00;;
20122;SDS011;10222;50.848;4.336;2022-11-15T08:53:30;1.63;;;1.00;;
20122;SDS011;10222;50.848;4.336;2022-11-15T08:55:59;2.00;;;0.83;;
20122;SDS011;10222;50.848;4.336;2022-11-15T08:58:31;1.77;;;1.00;;
20122;SDS011;10222;50.848;4.336;2022-11-15T09:00:57;2.90;;;1.00;;
20122;SDS011;10222;50.848;4.336;2022-11-15T09:03:26;3.10;;;1.17;;
20122;SDS011;10222;50.848;4.336;2022-11-15T09:05:56;1.70;;;1.23;;
20122;SDS011;10222;50.848;4.336;2022-11-15T09:08:24;1.13;;;1.03;;
20122;SDS011;10222;50.848;4.336;2022-11-15T09:10:57;1.27;;;0.80;;
20122;SDS011;10222;50.848;4.336;2022-11-15T09:13:25;2.37;;;0.97;;
20122;SDS011;10222;50.848;4.336;2022-11-15T09:18:20;3.23;;;0.93;;
20122;SDS011;10222;50.848;4.336;2022-11-15T09:23:18;1.97;;;0.87;;
20122;SDS011;10222;50.848;4.336;2022-11-15T09:25:45;2.53;;;0.80;;
20122;SDS011;10222;50.848;4.336;2022-11-15T09:28:12;1.17;;;0.70;;
20122;SDS011;10222;50.848;4.336;2022-11-15T09:33:11;3.57;;;1.67;;
20122;SDS011;10222;50.848;4.336;2022-11-15T09:35:38;2.50;;;1.10;;
20122;SDS011;10222;50.848;4.336;2022-11-15T09:38:08;1.83;;;1.23;;
20122;SDS011;10222;50.848;4.336;2022-11-15T09:40:42;3.77;;;1.10;;
20122;SDS011;10222;50.848;4.336;2022-11-15T09:56:33;1.17;;;0.77;;
20122;SDS011;10222;50.848;4.336;2022-11-15T10:04:29;1.00;;;0.70;;
20122;SDS011;10222;50.848;4.336;2022-11-15T10:15:10;1.70;;;0.90;;
20122;SDS011;10222;50.848;4.336;2022-11-15T10:20:29;1.43;;;1.00;;
20122;SDS011;10222;50.848;4.336;2022-11-15T10:23:01;2.10;;;0.90;;
20122;SDS011;10222;50.848;4.336;2022-11-15T10:25:30;2.40;;;1.00;;
20122;SDS011;10222;50.848;4.336;2022-11-15T10:30:39;0.90;;;0.73;;
20122;SDS011;10222;50.848;4.336;2022-11-15T10:33:13;4.80;;;0.90;;
20122;SDS011;10222;50.848;4.336;2022-11-15T10:38:11;3.00;;;0.87;;
20122;SDS011;10222;50.848;4.336;2022-11-15T10:40:40;3.83;;;1.07;;
20122;SDS011;10222;50.848;4.336;2022-11-15T10:43:17;2.83;;;1.00;;
20122;SDS011;10222;50.848;4.336;2022-11-15T10:45:47;1.07;;;0.50;;
20122;SDS011;10222;50.848;4.336;2022-11-15T10:50:44;2.20;;;1.00;;
20122;SDS011;10222;50.848;4.336;2022-11-15T10:55:47;2.63;;;0.70;;
20122;SDS011;10222;50.848;4.336;2022-11-15T10:58:21;3.97;;;0.83;;
20122;SDS011;10222;50.848;4.336;2022-11-15T11:00:49;5.40;;;0.60;;
20122;SDS011;10222;50.848;4.336;2022-11-15T11:06:19;2.00;;;1.63;;
20122;SDS011;10222;50.848;4.336;2022-11-15T11:09:00;2.37;;;0.60;;
20122;SDS011;10222;50.848;4.336;2022-11-15T11:14:30;3.13;;;0.70;;
20122;SDS011;10222;50.848;4.336;2022-11-15T11:30:24;1.23;;;0.60;;
20122;SDS011;10222;50.848;4.336;2022-11-15T11:40:39;2.23;;;0.60;;
20122;SDS011;10222;50.848;4.336;2022-11-15T11:43:16;4.63;;;1.20;;
20122;SDS011;10222;50.848;4.336;2022-11-15T11:51:03;2.23;;;0.70;;
20122;SDS011;10222;50.848;4.336;2022-11-15T11:56:03;2.03;;;0.77;;
20122;SDS011;10222;50.848;4.336;2022-11-15T11:58:43;1.87;;;0.70;;
20122;SDS011;10222;50.848;4.336;2022-11-15T12:03:43;3.60;;;1.07;;
20122;SDS011;10222;50.848;4.336;2022-11-15T12:06:20;3.17;;;1.00;;
20122;SDS011;10222;50.848;4.336;2022-11-15T12:08:52;1.43;;;0.73;;
20122;SDS011;10222;50.848;4.336;2022-11-15T12:11:32;0.90;;;0.60;;
20122;SDS011;10222;50.848;4.336;2022-11-15T12:14:05;1.13;;;0.73;;
20122;SDS011;10222;50.848;4.336;2022-11-15T12:19:07;2.83;;;0.83;;
20122;SDS011;10222;50.848;4.336;2022-11-15T12:24:23;4.07;;;0.97;;
20122;SDS011;10222;50.848;4.336;2022-11-15T12:29:38;4.90;;;0.90;;
20122;SDS011;10222;50.848;4.336;2022-11-15T12:32:04;4.40;;;1.60;;
20122;SDS011;10222;50.848;4.336;2022-11-15T12:34:38;3.47;;;1.30;;
20122;SDS011;10222;50.848;4.336;2022-11-15T12:42:41;4.80;;;1.53;;
20122;SDS011;10222;50.848;4.336;2022-11-15T12:45:25;1.57;;;0.83;;
20122;SDS011;10222;50.848;4.336;2022-11-15T12:47:52;2.20;;;1.30;;
20122;SDS011;10222;50.848;4.336;2022-11-15T12:51:04;1.83;;;1.00;;
20122;SDS011;10222;50.848;4.336;2022-11-15T12:58:45;1.27;;;0.70;;
20122;SDS011;10222;50.848;4.336;2022-11-15T13:06:41;1.93;;;1.00;;
20122;SDS011;10222;50.848;4.336;2022-11-15T13:11:58;3.23;;;1.20;;
20122;SDS011;10222;50.848;4.336;2022-11-15T13:17:30;2.77;;;0.93;;
20122;SDS011;10222;50.848;4.336;2022-11-15T13:30:54;4.83;;;1.63;;
20122;SDS011;10222;50.848;4.336;2022-11-15T13:35:49;3.60;;;0.97;;
20122;SDS011;10222;50.848;4.336;2022-11-15T13:40:51;4.53;;;1.63;;
20122;SDS011;10222;50.848;4.336;2022-11-15T13:48:41;1.73;;;1.07;;
20122;SDS011;10222;50.848;4.336;2022-11-15T13:51:23;4.43;;;1.47;;
20122;SDS011;10222;50.848;4.336;2022-11-15T13:56:31;2.33;;;0.80;;
20122;SDS011;10222;50.848;4.336;2022-11-15T13:59:07;2.57;;;1.20;;
20122;SDS011;10222;50.848;4.336;2022-11-15T14:01:36;2.70;;;1.40;;
20122;SDS011;10222;50.848;4.336;2022-11-15T14:04:04;3.83;;;1.53;;
20122;SDS011;10222;50.848;4.336;2022-11-15T14:11:35;1.47;;;1.10;;
20122;SDS011;10222;50.848;4.336;2022-11-15T14:14:14;3.10;;;1.17;;
20122;SDS011;10222;50.848;4.336;2022-11-15T14:16:47;4.20;;;1.50;;
20122;SDS011;10222;50.848;4.336;2022-11-15T14:24:41;1.90;;;0.70;;
20122;SDS011;10222;50.848;4.336;2022-11-15T14:32:46;2.33;;;1.17;;
20122;SDS011;10222;50.848;4.336;2022-11-15T14:35:15;1.63;;;1.23;;
20122;SDS011;10222;50.848;4.336;2022-11-15T14:37:42;1.50;;;0.97;;
20122;SDS011;10222;50.848;4.336;2022-11-15T14:40:13;2.30;;;1.00;;
20122;SDS011;10222;50.848;4.336;2022-11-15T14:45:13;1.10;;;0.70;;
20122;SDS011;10222;50.848;4.336;2022-11-15T14:47:42;1.93;;;0.90;;
20122;SDS011;10222;50.848;4.336;2022-11-15T14:52:44;1.43;;;0.90;;
20122;SDS011;10222;50.848;4.336;2022-11-15T14:58:03;1.13;;;0.70;;
20122;SDS011;10222;50.848;4.336;2022-11-15T15:00:33;1.27;;;1.00;;
20122;SDS011;10222;50.848;4.336;2022-11-15T15:03:05;2.17;;;1.10;;
20122;SDS011;10222;50.848;4.336;2022-11-15T15:05:38;3.53;;;1.00;;
20122;SDS011;10222;50.848;4.336;2022-11-15T15:08:08;1.47;;;0.87;;
20122;SDS011;10222;50.848;4.336;2022-11-15T15:10:41;2.33;;;1.30;;
20122;SDS011;10222;50.848;4.336;2022-11-15T15:13:22;2.70;;;1.10;;
20122;SDS011;10222;50.848;4.336;2022-11-15T15:15:50;1.10;;;0.80;;
20122;SDS011;10222;50.848;4.336;2022-11-15T15:18:17;1.07;;;0.70;;
20122;SDS011;10222;50.848;4.336;2022-11-15T15:20:47;2.13;;;1.17;;
20122;SDS011;10222;50.848;4.336;2022-11-15T15:25:50;2.37;;;1.20;;
20122;SDS011;10222;50.848;4.336;2022-11-15T15:28:18;2.27;;;1.20;;
20122;SDS011;10222;50.848;4.336;2022-11-15T15:30:45;1.97;;;0.90;;
20122;SDS011;10222;50.848;4.336;2022-11-15T15:33:12;2.53;;;1.40;;
20122;SDS011;10222;50.848;4.336;2022-11-15T15:35:38;1.47;;;1.13;;
20122;SDS011;10222;50.848;4.336;2022-11-15T15:38:05;3.13;;;1.70;;
20122;SDS011;10222;50.848;4.336;2022-11-15T15:40:31;2.97;;;1.53;;
20122;SDS011;10222;50.848;4.336;2022-11-15T15:43:00;2.63;;;1.50;;
20122;SDS011;10222;50.848;4.336;2022-11-15T15:45:29;1.93;;;1.20;;
20122;SDS011;10222;50.848;4.336;2022-11-15T15:50:27;2.50;;;1.50;;
20122;SDS011;10222;50.848;4.336;2022-11-15T15:52:55;3.57;;;1.60;;
20122;SDS011;10222;50.848;4.336;2022-11-15T15:55:25;2.80;;;1.40;;
20122;SDS011;10222;50.848;4.336;2022-11-15T16:00:21;1.70;;;1.13;;
20122;SDS011;10222;50.848;4.336;2022-11-15T16:02:49;3.80;;;1.77;;
20122;SDS011;10222;50.848;4.336;2022-11-15T16:05:16;3.80;;;1.33;;
20122;SDS011;10222;50.848;4.336;2022-11-15T16:07:43;2.20;;;1.23;;
20122;SDS011;10222;50.848;4.336;2022-11-15T16:10:21;3.20;;;1.20;;
20122;SDS011;10222;50.848;4.336;2022-11-15T16:12:48;3.63;;;1.33;;
20122;SDS011;10222;50.848;4.336;2022-11-15T16:15:15;2.07;;;1.30;;
20122;SDS011;10222;50.848;4.336;2022-11-15T16:22:51;3.27;;;1.47;;
20122;SDS011;10222;50.848;4.336;2022-11-15T16:25:18;1.53;;;1.17;;
20122;SDS011;10222;50.848;4.336;2022-11-15T16:27:47;1.73;;;1.40;;
20122;SDS011;10222;50.848;4.336;2022-11-15T16:30:17;3.33;;;1.73;;
20122;SDS011;10222;50.848;4.336;2022-11-15T16:32:45;3.17;;;1.43;;
20122;SDS011;10222;50.848;4.336;2022-11-15T16:35:14;2.87;;;1.97;;
20122;SDS011;10222;50.848;4.336;2022-11-15T16:37:43;2.63;;;1.23;;
20122;SDS011;10222;50.848;4.336;2022-11-15T16:42:50;3.10;;;1.50;;
20122;SDS011;10222;50.848;4.336;2022-11-15T16:45:18;4.10;;;1.60;;
20122;SDS011;10222;50.848;4.336;2022-11-15T16:47:44;3.87;;;1.57;;
20122;SDS011;10222;50.848;4.336;2022-11-15T16:50:24;2.47;;;1.67;;
20122;SDS011;10222;50.848;4.336;2022-11-15T16:52:53;4.40;;;1.67;;
20122;SDS011;10222;50.848;4.336;2022-11-15T16:55:23;2.40;;;1.70;;
20122;SDS011;10222;50.848;4.336;2022-11-15T16:57:57;1.87;;;1.37;;
20122;SDS011;10222;50.848;4.336;2022-11-15T17:02:52;2.47;;;1.50;;
20122;SDS011;10222;50.848;4.336;2022-11-15T17:05:19;1.80;;;1.43;;
20122;SDS011;10222;50.848;4.336;2022-11-15T17:07:49;2.13;;;1.53;;
20122;SDS011;10222;50.848;4.336;2022-11-15T17:10:22;4.47;;;2.00;;
20122;SDS011;10222;50.848;4.336;2022-11-15T17:12:52;2.43;;;1.47;;
20122;SDS011;10222;50.848;4.336;2022-11-15T17:15:21;3.40;;;1.87;;
20122;SDS011;10222;50.848;4.336;2022-11-15T17:18:03;2.53;;;1.63;;
20122;SDS011;10222;50.848;4.336;2022-11-15T17:20:33;2.43;;;1.63;;
20122;SDS011;10222;50.848;4.336;2022-11-15T17:23:02;3.20;;;1.87;;
20122;SDS011;10222;50.848;4.336;2022-11-15T17:25:31;2.53;;;1.53;;
20122;SDS011;10222;50.848;4.336;2022-11-15T17:30:27;5.20;;;2.07;;
20122;SDS011;10222;50.848;4.336;2022-11-15T17:35:22;4.37;;;2.23;;
20122;SDS011;10222;50.848;4.336;2022-11-15T17:40:21;5.07;;;2.67;;
20122;SDS011;10222;50.848;4.336;2022-11-15T17:42:50;5.27;;;2.47;;
20122;SDS011;10222;50.848;4.336;2022-11-15T17:45:16;6.77;;;2.97;;
20122;SDS011;10222;50.848;4.336;2022-11-15T17:47:43;4.93;;;2.90;;
20122;SDS011;10222;50.848;4.336;2022-11-15T17:52:41;4.87;;;2.30;;
20122;SDS011;10222;50.848;4.336;2022-11-15T17:55:07;2.27;;;1.60;;
20122;SDS011;10222;50.848;4.336;2022-11-15T17:57:37;3.43;;;1.97;;
20122;SDS011;10222;50.848;4.336;2022-11-15T18:02:35;5.63;;;2.10;;
20122;SDS011;10222;50.848;4.336;2022-11-15T18:05:04;3.37;;;2.10;;
20122;SDS011;10222;50.848;4.336;2022-11-15T18:07:32;3.00;;;1.60;;
20122;SDS011;10222;50.848;4.336;2022-11-15T18:09:58;3.27;;;1.87;;
20122;SDS011;10222;50.848;4.336;2022-11-15T18:17:24;5.90;;;2.50;;
20122;SDS011;10222;50.848;4.336;2022-11-15T18:19:50;2.57;;;2.00;;
20122;SDS011;10222;50.848;4.336;2022-11-15T18:24:48;2.93;;;1.70;;
20122;SDS011;10222;50.848;4.336;2022-11-15T18:27:14;3.87;;;2.23;;
20122;SDS011;10222;50.848;4.336;2022-11-15T18:32:25;4.20;;;2.40;;
20122;SDS011;10222;50.848;4.336;2022-11-15T18:34:52;3.63;;;2.50;;
20122;SDS011;10222;50.848;4.336;2022-11-15T18:37:22;3.87;;;2.10;;
20122;SDS011;10222;50.848;4.336;2022-11-15T18:39:49;5.60;;;2.20;;
20122;SDS011;10222;50.848;4.336;2022-11-15T18:42:15;3.53;;;2.27;;
20122;SDS011;10222;50.848;4.336;2022-11-15T18:44:43;3.43;;;2.10;;
20122;SDS011;10222;50.848;4.336;2022-11-15T18:47:09;4.63;;;2.70;;
20122;SDS011;10222;50.848;4.336;2022-11-15T18:49:35;6.40;;;2.80;;
20122;SDS011;10222;50.848;4.336;2022-11-15T18:52:01;4.70;;;2.70;;
20122;SDS011;10222;50.848;4.336;2022-11-15T18:54:27;4.60;;;2.50;;
20122;SDS011;10222;50.848;4.336;2022-11-15T18:56:53;6.10;;;2.50;;
20122;SDS011;10222;50.848;4.336;2022-11-15T18:59:21;2.43;;;1.93;;
20122;SDS011;10222;50.848;4.336;2022-11-15T19:01:47;4.87;;;2.07;;
20122;SDS011;10222;50.848;4.336;2022-11-15T19:04:18;3.70;;;1.93;;
20122;SDS011;10222;50.848;4.336;2022-11-15T19:06:47;3.77;;;2.27;;
20122;SDS011;10222;50.848;4.336;2022-11-15T19:09:14;3.77;;;2.00;;
20122;SDS011;10222;50.848;4.336;2022-11-15T19:11:41;3.83;;;2.23;;
20122;SDS011;10222;50.848;4.336;2022-11-15T19:14:09;3.70;;;2.37;;
20122;SDS011;10222;50.848;4.336;2022-11-15T19:16:46;3.60;;;2.33;;
20122;SDS011;10222;50.848;4.336;2022-11-15T19:19:20;5.77;;;2.33;;